EDDVEDDW

Guest
Details From EDDV - Hannover
To EDDW - Bremen
Flight Number -
Tags Generated
Created
Modified
Stats Distance 47 nm / 86 km
Max Altitude 0 ft / 0 m
Waypoints 2
Social Downloads 4
Likes 0
Share VATSIM

Download

Looking for another format? Having issues loading an existing format? Contact us
Advertisement - Login to hide

Notes

Generated

Route

EDDV EDDW

ID Type Via Altitude Latitude Longitude Leg Dist Tot Dist Heading (true) Name
O EDDV APT - 0 ft / 0 m 52.46820˚ 9.64854˚ - 0 nm - -
O EDDW APT - 0 ft / 0 m 53.04257˚ 8.78424˚ 46 nm 46 nm 318° / 317° -

Altitude Profile

Advertisement - Login to hide

EDDV

Details ICAO EDDV (HAJ)
Name Hannover
Region Germany - Civil
Timezone Europe/Berlin (UTC+1.0)
Stats Elevation 183 ft / 56 m (AMSL)
Location 52.462095° 9.686794°
Runways 3
Magnetic Variation 2.682° E

METAR

EDDV 180520Z 15006KT 9999 SCT018 BKN070 02/M01 Q1019 NOSIG

Decode

TAF

TAF EDDV 172300Z 1800/1824 19007KT 9999 BKN015 TEMPO 1800/1810 BKN012 BECMG 1803/1805 13007KT BECMG 1813/1815 25004KT

Decode

Departure Runways

ID Width Length Bearing (true) Bearing (mag) Surface Threshold Offset Overrun Length
09C 75 ft / 23 m 2,532 ft / 772 m 92.55° 89.87° Asphalt 213 ft / 65 m 0 ft / 0 m
09L 148 ft / 45 m 12,429 ft / 3,788 m 92.57° 89.89° Concrete 984 ft / 300 m 0 ft / 0 m
09R 148 ft / 45 m 7,653 ft / 2,333 m 92.60° 89.92° Concrete 0 ft / 0 m 0 ft / 0 m
27C 75 ft / 23 m 2,532 ft / 772 m 272.56° 269.88° Asphalt 541 ft / 165 m 0 ft / 0 m
27L 148 ft / 45 m 7,653 ft / 2,333 m 272.62° 269.94° Concrete 0 ft / 0 m 0 ft / 0 m
27R 148 ft / 45 m 12,429 ft / 3,788 m 272.61° 269.93° Concrete 984 ft / 300 m 0 ft / 0 m

EDDW

Details ICAO EDDW (BRE)
Name Bremen
Region Germany - Civil
Timezone Europe/Berlin (UTC+1.0)
Stats Elevation 14 ft / 4 m (AMSL)
Location 53.045715° 8.789003°
Runways 2
Magnetic Variation 2.405° E

METAR

EDDW 180520Z 14005KT 9999 -RA BKN007 02/01 Q1019 R88/290095 NOSIG

Decode

TAF

TAF AMD EDDW 180112Z 1801/1824 18009KT 6000 BKN015 TEMPO 1801/1807 2500 RASN BKN004 BECMG 1805/1807 12007KT BECMG 1813/1816 25004KT TEMPO 1821/1824 2500 BR BKN012

Decode

Destination Runways

ID Width Length Bearing (true) Bearing (mag) Surface Threshold Offset Overrun Length
05 75 ft / 23 m 2,298 ft / 700 m 51.18° 48.78° Asphalt 0 ft / 0 m 0 ft / 0 m
09 151 ft / 46 m 8,616 ft / 2,626 m 87.78° 85.38° Asphalt 945 ft / 288 m 0 ft / 0 m
23 75 ft / 23 m 2,298 ft / 700 m 231.19° 228.79° Asphalt 0 ft / 0 m 0 ft / 0 m
27 151 ft / 46 m 8,616 ft / 2,626 m 267.82° 265.42° Asphalt 984 ft / 300 m 0 ft / 0 m

Approach Navaids

Runway Type Ident Frequency Range Bearing (true) Bearing (mag) Slope Elevation
09 Localiser IBRE 110.30 MHz 18 nm / 33 km 87.77° 85.37° - 13 ft / 4 m (AMSL)
09 Glidescope IBRE 110.30 MHz 10 nm / 19 km 87.80° 85.40° 3.00° 13 ft / 4 m (AMSL)
27 Localiser IBRW 110.90 MHz 18 nm / 33 km 267.87° 265.47° - 14 ft / 4 m (AMSL)
27 Glidescope IBRW 110.90 MHz 10 nm / 19 km 267.80° 265.40° 3.00° 14 ft / 4 m (AMSL)

Popular Alternatives